Time;durP1;ratioP1;P1;durP2;ratioP2;P2;SDS_P1;SDS_P2;PMS_P1;PMS_P2;Temp;Humidity;BMP_temperature;BMP_pressure;BME280_temperature;BME280_humidity;BME280_pressure;Samples;Min_cycle;Max_cycle;Signal;HPM_P1;HPM_P2
2022/11/27 00:00:23;;;;;;;157.88;85.50;;;;;;;;;;5040439;28;20045;-78
2022/11/27 00:03:10;;;;;;;168.60;86.55;;;;;;;;;;5034339;28;20053;-76
2022/11/27 00:05:57;;;;;;;155.00;83.22;;;;;;;;;;5040169;28;20045;-77
2022/11/27 00:08:44;;;;;;;144.95;77.80;;;;;;;;;;5041482;28;20049;-78
2022/11/27 00:11:31;;;;;;;153.90;80.82;;;;;;;;;;5042943;28;20049;-77
2022/11/27 00:14:16;;;;;;;165.35;81.22;;;;;;;;;;5042793;28;20045;-76
2022/11/27 00:17:01;;;;;;;165.98;83.05;;;;;;;;;;5043234;28;20053;-78
2022/11/27 00:19:47;;;;;;;166.75;83.53;;;;;;;;;;5033559;28;20041;-76
2022/11/27 00:22:32;;;;;;;154.77;80.72;;;;;;;;;;5040484;28;20472;-76
2022/11/27 00:25:18;;;;;;;160.38;84.78;;;;;;;;;;5040480;28;20045;-76
2022/11/27 00:28:03;;;;;;;168.35;82.75;;;;;;;;;;5040017;28;20050;-77
2022/11/27 00:30:49;;;;;;;166.77;85.35;;;;;;;;;;5040030;28;20041;-77
2022/11/27 00:33:36;;;;;;;159.90;83.20;;;;;;;;;;5033113;28;20041;-77
2022/11/27 00:36:21;;;;;;;163.27;83.30;;;;;;;;;;5039973;28;20481;-77
2022/11/27 00:39:07;;;;;;;165.43;83.40;;;;;;;;;;5033823;28;20388;-77
2022/11/27 00:41:53;;;;;;;164.07;86.63;;;;;;;;;;5033272;28;20053;-77
2022/11/27 00:44:38;;;;;;;197.32;98.47;;;;;;;;;;5039291;28;20041;-76
2022/11/27 00:47:23;;;;;;;299.67;152.75;;;;;;;;;;5039764;28;20041;-76
2022/11/27 00:50:09;;;;;;;201.05;103.65;;;;;;;;;;5040046;28;20049;-78
2022/11/27 00:52:55;;;;;;;203.60;103.30;;;;;;;;;;5042608;28;20045;-78
2022/11/27 00:55:40;;;;;;;187.05;97.50;;;;;;;;;;5043886;28;20053;-77
2022/11/27 00:58:26;;;;;;;163.27;89.70;;;;;;;;;;5044122;28;20049;-77
2022/11/27 01:01:25;;;;;;;167.95;87.38;;;;;;;;;;5043195;28;20057;-78
2022/11/27 01:04:13;;;;;;;157.18;81.60;;;;;;;;;;5044107;28;20496;-76
2022/11/27 01:06:59;;;;;;;149.75;78.60;;;;;;;;;;5037499;28;20046;-77
2022/11/27 01:09:44;;;;;;;147.90;78.75;;;;;;;;;;5043889;28;20049;-77
2022/11/27 01:12:30;;;;;;;129.23;67.63;;;;;;;;;;5043858;28;20480;-76
2022/11/27 01:15:15;;;;;;;90.53;47.85;;;;;;;;;;5043596;28;20045;-77
2022/11/27 01:18:01;;;;;;;79.78;40.17;;;;;;;;;;5044433;28;20050;-80
2022/11/27 01:20:51;;;;;;;78.32;39.42;;;;;;;;;;5044464;28;20049;-78
2022/11/27 01:23:36;;;;;;;73.22;38.72;;;;;;;;;;5036576;28;20041;-78
2022/11/27 01:26:23;;;;;;;72.13;39.50;;;;;;;;;;5043908;28;20057;-76
2022/11/27 01:29:09;;;;;;;231.55;124.88;;;;;;;;;;5042939;28;20045;-76
2022/11/27 01:31:55;;;;;;;77.40;38.58;;;;;;;;;;5043441;28;20045;-77
2022/11/27 01:34:40;;;;;;;88.88;46.50;;;;;;;;;;5042377;28;20481;-77
2022/11/27 01:37:26;;;;;;;77.68;43.05;;;;;;;;;;5042739;28;20050;-77
2022/11/27 01:40:12;;;;;;;80.38;41.25;;;;;;;;;;5036435;28;20045;-76
2022/11/27 01:42:57;;;;;;;126.43;63.33;;;;;;;;;;5042970;28;20480;-78
2022/11/27 01:45:44;;;;;;;81.85;41.28;;;;;;;;;;5043038;28;20045;-78
2022/11/27 01:48:30;;;;;;;76.13;39.63;;;;;;;;;;5043213;28;20049;-79
2022/11/27 01:51:15;;;;;;;74.88;39.70;;;;;;;;;;5043599;28;20049;-78
2022/11/27 01:54:01;;;;;;;68.82;39.13;;;;;;;;;;5043491;28;20050;-77
2022/11/27 01:56:50;;;;;;;73.65;39.13;;;;;;;;;;5043122;28;20424;-80
2022/11/27 01:59:36;;;;;;;73.18;38.10;;;;;;;;;;5042015;28;20049;-79
2022/11/27 02:02:21;;;;;;;73.97;37.30;;;;;;;;;;5039397;28;20396;-78
2022/11/27 02:05:09;;;;;;;196.32;112.00;;;;;;;;;;5034998;28;20041;-79
2022/11/27 02:07:57;;;;;;;74.43;38.70;;;;;;;;;;5042728;28;20045;-77
2022/11/27 02:10:50;;;;;;;66.28;36.45;;;;;;;;;;5042445;28;20045;-78
2022/11/27 02:13:39;;;;;;;65.68;35.20;;;;;;;;;;5042530;28;20050;-78
2022/11/27 02:16:53;;;;;;;66.80;35.85;;;;;;;;;;5042826;28;20481;-77
2022/11/27 02:20:16;;;;;;;64.28;33.53;;;;;;;;;;5046177;28;20045;-77
2022/11/27 02:23:02;;;;;;;72.72;34.92;;;;;;;;;;5039175;28;20041;-79
2022/11/27 02:26:17;;;;;;;64.68;34.38;;;;;;;;;;5045541;28;20049;-78
2022/11/27 02:29:09;;;;;;;79.00;36.53;;;;;;;;;;5046324;28;20049;-80
2022/11/27 02:32:01;;;;;;;66.60;36.15;;;;;;;;;;5046859;28;20049;-78
2022/11/27 02:34:58;;;;;;;67.80;35.70;;;;;;;;;;5048017;28;20041;-79
2022/11/27 02:38:19;;;;;;;71.53;37.45;;;;;;;;;;5037663;28;20037;-79
2022/11/27 02:41:11;;;;;;;70.25;38.25;;;;;;;;;;5013119;28;20049;-79
2022/11/27 02:43:58;;;;;;;77.68;38.95;;;;;;;;;;5042193;28;20057;-78
2022/11/27 02:46:45;;;;;;;78.82;39.80;;;;;;;;;;5041812;28;20053;-79
2022/11/27 02:49:31;;;;;;;79.00;39.97;;;;;;;;;;5041694;28;20396;-78
2022/11/27 02:52:18;;;;;;;85.03;44.50;;;;;;;;;;5042095;28;20473;-78
2022/11/27 02:55:10;;;;;;;83.05;43.92;;;;;;;;;;5034757;28;20045;-79
2022/11/27 02:57:56;;;;;;;78.75;43.58;;;;;;;;;;5043347;28;20045;-77
2022/11/27 03:00:43;;;;;;;87.80;45.72;;;;;;;;;;5043130;28;20049;-77
2022/11/27 03:03:33;;;;;;;95.10;45.10;;;;;;;;;;5046334;28;20045;-77
2022/11/27 03:06:25;;;;;;;99.30;48.65;;;;;;;;;;5043929;28;20061;-79
2022/11/27 03:09:43;;;;;;;85.28;44.28;;;;;;;;;;5041485;28;20053;-78
2022/11/27 03:12:29;;;;;;;86.25;44.72;;;;;;;;;;5050091;28;20395;-78
2022/11/27 03:15:15;;;;;;;77.05;40.80;;;;;;;;;;5052643;28;20040;-77
2022/11/27 03:18:12;;;;;;;78.63;40.38;;;;;;;;;;5058445;28;20046;-78
2022/11/27 03:21:28;;;;;;;75.10;40.58;;;;;;;;;;5080580;28;20053;-78
2022/11/27 03:24:14;;;;;;;64.68;36.03;;;;;;;;;;5040059;28;20045;-79
2022/11/27 03:27:01;;;;;;;59.55;32.40;;;;;;;;;;5059631;28;20045;-78
2022/11/27 03:29:56;;;;;;;51.97;32.08;;;;;;;;;;5058888;28;20045;-77
2022/11/27 03:32:42;;;;;;;67.40;35.40;;;;;;;;;;5055934;28;20399;-79
2022/11/27 03:35:28;;;;;;;63.58;34.33;;;;;;;;;;5059690;28;20045;-78
2022/11/27 03:38:12;;;;;;;63.85;33.50;;;;;;;;;;5059285;28;20041;-79
2022/11/27 03:41:09;;;;;;;66.07;35.38;;;;;;;;;;5059185;28;20045;-77
2022/11/27 03:43:59;;;;;;;66.05;33.78;;;;;;;;;;5058403;28;20048;-77
2022/11/27 03:47:33;;;;;;;62.88;36.45;;;;;;;;;;5059220;28;20041;-79
2022/11/27 03:50:47;;;;;;;67.03;35.22;;;;;;;;;;5053548;28;20048;-80
2022/11/27 03:53:54;;;;;;;67.53;33.97;;;;;;;;;;5060966;28;20045;-77
2022/11/27 03:56:52;;;;;;;65.10;33.67;;;;;;;;;;5060661;28;20044;-77
2022/11/27 03:59:42;;;;;;;65.05;34.17;;;;;;;;;;5060714;28;20053;-78
2022/11/27 04:02:36;;;;;;;72.68;36.10;;;;;;;;;;5053936;28;20053;-78
2022/11/27 04:05:22;;;;;;;65.88;35.30;;;;;;;;;;5060351;28;20057;-78
2022/11/27 04:08:07;;;;;;;71.25;35.90;;;;;;;;;;5054316;28;20053;-78
2022/11/27 04:10:53;;;;;;;68.65;35.75;;;;;;;;;;5053583;28;20045;-78
2022/11/27 04:13:38;;;;;;;72.85;37.58;;;;;;;;;;5060641;28;20040;-76
2022/11/27 04:16:23;;;;;;;73.50;36.97;;;;;;;;;;5060445;28;20045;-77
2022/11/27 04:19:09;;;;;;;75.57;36.13;;;;;;;;;;5060174;28;20052;-78
2022/11/27 04:21:54;;;;;;;71.80;36.88;;;;;;;;;;5060766;28;20041;-78
2022/11/27 04:24:40;;;;;;;74.63;36.95;;;;;;;;;;5060212;28;20053;-77
2022/11/27 04:27:25;;;;;;;76.70;37.10;;;;;;;;;;5059882;28;20049;-78
2022/11/27 04:30:11;;;;;;;83.80;39.33;;;;;;;;;;5060316;28;20048;-78
2022/11/27 04:32:57;;;;;;;78.13;36.90;;;;;;;;;;5059621;28;20049;-79
2022/11/27 04:35:42;;;;;;;84.50;39.78;;;;;;;;;;5060974;28;20476;-79
2022/11/27 04:38:28;;;;;;;95.97;40.40;;;;;;;;;;5058943;28;20049;-78
2022/11/27 04:41:13;;;;;;;95.35;40.78;;;;;;;;;;5053304;28;20045;-79
2022/11/27 04:43:59;;;;;;;97.65;41.38;;;;;;;;;;5060195;28;20049;-77
2022/11/27 04:46:44;;;;;;;90.40;38.75;;;;;;;;;;5059953;28;20057;-77
2022/11/27 04:49:30;;;;;;;90.57;37.83;;;;;;;;;;5054082;28;20037;-78
2022/11/27 04:52:16;;;;;;;88.13;36.20;;;;;;;;;;5052968;28;20042;-78
2022/11/27 04:55:03;;;;;;;90.82;36.58;;;;;;;;;;5059995;28;20044;-79
2022/11/27 04:57:48;;;;;;;84.40;38.17;;;;;;;;;;5060083;28;20049;-77
2022/11/27 05:00:33;;;;;;;88.28;37.30;;;;;;;;;;5059845;28;20049;-78
2022/11/27 05:03:19;;;;;;;74.75;35.65;;;;;;;;;;5054103;28;20460;-77
2022/11/27 05:06:05;;;;;;;87.40;34.13;;;;;;;;;;5059844;28;20446;-78
2022/11/27 05:08:58;;;;;;;77.68;32.72;;;;;;;;;;5060034;28;20426;-78
2022/11/27 05:11:43;;;;;;;79.07;34.92;;;;;;;;;;5059193;28;20041;-76
2022/11/27 05:14:29;;;;;;;85.68;33.25;;;;;;;;;;5055079;28;20037;-79
2022/11/27 05:17:14;;;;;;;82.93;34.30;;;;;;;;;;5053339;28;20045;-78
2022/11/27 05:20:00;;;;;;;78.53;34.35;;;;;;;;;;5059968;28;20045;-78
2022/11/27 05:22:47;;;;;;;82.20;35.22;;;;;;;;;;5057556;28;20045;-79
2022/11/27 05:25:32;;;;;;;87.57;34.78;;;;;;;;;;5042138;28;20480;-79
2022/11/27 05:28:17;;;;;;;76.50;33.20;;;;;;;;;;5038727;28;20054;-77
2022/11/27 05:31:03;;;;;;;92.13;34.17;;;;;;;;;;5051617;28;20037;-79
2022/11/27 05:33:48;;;;;;;84.00;33.20;;;;;;;;;;5053929;28;20471;-79
2022/11/27 05:36:34;;;;;;;81.90;33.38;;;;;;;;;;5049711;28;20041;-78
2022/11/27 05:39:20;;;;;;;74.35;32.90;;;;;;;;;;5053711;28;20045;-77
2022/11/27 05:42:06;;;;;;;92.78;35.83;;;;;;;;;;5061953;28;20049;-78
2022/11/27 05:44:52;;;;;;;84.85;33.08;;;;;;;;;;5060020;28;20056;-79
2022/11/27 05:47:37;;;;;;;74.13;32.63;;;;;;;;;;5065072;28;20057;-77
2022/11/27 05:50:23;;;;;;;85.10;35.22;;;;;;;;;;5047862;28;20476;-79
2022/11/27 05:53:09;;;;;;;101.65;34.90;;;;;;;;;;5057095;28;20041;-78
2022/11/27 05:56:03;;;;;;;89.80;36.00;;;;;;;;;;5064358;28;20041;-79
2022/11/27 05:58:50;;;;;;;103.55;36.58;;;;;;;;;;5039680;28;20049;-79
2022/11/27 06:01:35;;;;;;;97.63;38.55;;;;;;;;;;5040679;28;20480;-78
2022/11/27 06:04:21;;;;;;;105.18;41.05;;;;;;;;;;5042911;28;20049;-79
2022/11/27 06:07:06;;;;;;;97.05;38.45;;;;;;;;;;5043113;28;20045;-77
2022/11/27 06:09:52;;;;;;;102.40;38.65;;;;;;;;;;5036053;28;20062;-77
2022/11/27 06:12:37;;;;;;;93.07;35.83;;;;;;;;;;5035956;28;20049;-77
2022/11/27 06:15:22;;;;;;;104.03;38.28;;;;;;;;;;5044769;28;20407;-77
2022/11/27 06:18:10;;;;;;;102.72;38.10;;;;;;;;;;5054374;28;20053;-77
2022/11/27 06:20:54;;;;;;;107.45;37.78;;;;;;;;;;5055119;28;20036;-78
2022/11/27 06:23:41;;;;;;;111.22;36.72;;;;;;;;;;5061561;28;20049;-79
2022/11/27 06:26:29;;;;;;;103.88;35.33;;;;;;;;;;5052964;28;20041;-78
2022/11/27 06:29:14;;;;;;;114.35;38.35;;;;;;;;;;5044204;28;20431;-78
2022/11/27 06:32:00;;;;;;;112.53;36.90;;;;;;;;;;5059670;28;20045;-78
2022/11/27 06:34:45;;;;;;;122.78;39.47;;;;;;;;;;5060872;28;20105;-78
2022/11/27 06:37:31;;;;;;;109.30;36.72;;;;;;;;;;5059358;28;20392;-77
2022/11/27 06:40:17;;;;;;;112.00;37.92;;;;;;;;;;5054699;28;20045;-79
2022/11/27 06:43:02;;;;;;;91.40;33.28;;;;;;;;;;5062061;28;20061;-78
2022/11/27 06:45:57;;;;;;;105.95;35.03;;;;;;;;;;5062023;28;20049;-79
2022/11/27 06:48:45;;;;;;;107.28;35.97;;;;;;;;;;5055021;28;20045;-79
2022/11/27 06:51:31;;;;;;;101.47;34.67;;;;;;;;;;5060437;28;20049;-79
2022/11/27 06:54:16;;;;;;;98.78;35.05;;;;;;;;;;5060198;28;20046;-77
2022/11/27 06:57:02;;;;;;;122.05;37.35;;;;;;;;;;5050600;28;20037;-77
2022/11/27 06:59:46;;;;;;;98.18;38.35;;;;;;;;;;5035022;28;20037;-77
2022/11/27 07:02:32;;;;;;;99.65;35.60;;;;;;;;;;5039190;28;20504;-78
2022/11/27 07:05:18;;;;;;;111.53;35.63;;;;;;;;;;5060996;28;20490;-77
2022/11/27 07:08:04;;;;;;;86.85;31.92;;;;;;;;;;5061592;28;20418;-78
2022/11/27 07:10:49;;;;;;;96.20;31.52;;;;;;;;;;5053659;28;20041;-78
2022/11/27 07:13:35;;;;;;;89.57;29.60;;;;;;;;;;5061030;28;20041;-79
2022/11/27 07:16:20;;;;;;;113.40;40.25;;;;;;;;;;5061316;28;20496;-77
2022/11/27 07:19:06;;;;;;;105.03;39.20;;;;;;;;;;5060240;28;20040;-79
2022/11/27 07:21:51;;;;;;;109.10;40.78;;;;;;;;;;5061641;28;20395;-77
2022/11/27 07:24:36;;;;;;;94.15;34.13;;;;;;;;;;5061515;28;20049;-79
2022/11/27 07:27:21;;;;;;;122.90;43.72;;;;;;;;;;5054294;28;20045;-77
2022/11/27 07:30:07;;;;;;;97.82;38.50;;;;;;;;;;5061317;28;20045;-79
2022/11/27 07:32:53;;;;;;;92.90;35.90;;;;;;;;;;5054396;28;20476;-78
2022/11/27 07:35:38;;;;;;;123.03;45.63;;;;;;;;;;5034269;28;20042;-79
2022/11/27 07:38:24;;;;;;;117.53;38.92;;;;;;;;;;5042476;28;20052;-80
2022/11/27 07:41:10;;;;;;;112.72;41.65;;;;;;;;;;5058801;28;20049;-78
2022/11/27 07:43:56;;;;;;;97.57;38.95;;;;;;;;;;5055415;28;20049;-78
2022/11/27 07:46:41;;;;;;;109.05;45.30;;;;;;;;;;5052618;28;20480;-77
2022/11/27 07:49:27;;;;;;;116.43;44.03;;;;;;;;;;5034122;28;20037;-78
2022/11/27 07:52:13;;;;;;;106.32;39.30;;;;;;;;;;5039297;28;20049;-77
2022/11/27 07:54:58;;;;;;;114.15;42.38;;;;;;;;;;5052798;28;20052;-80
2022/11/27 07:57:44;;;;;;;104.05;40.75;;;;;;;;;;5048330;28;20045;-78
2022/11/27 08:00:29;;;;;;;105.18;40.00;;;;;;;;;;5059434;28;20042;-78
2022/11/27 08:03:15;;;;;;;104.40;41.67;;;;;;;;;;5054101;28;20061;-77
2022/11/27 08:06:01;;;;;;;116.45;46.38;;;;;;;;;;5052630;28;20053;-78
2022/11/27 08:08:47;;;;;;;101.38;42.05;;;;;;;;;;5045317;28;20040;-77
2022/11/27 08:11:34;;;;;;;98.70;39.53;;;;;;;;;;5038825;28;20485;-80
2022/11/27 08:14:19;;;;;;;101.53;40.70;;;;;;;;;;5040251;28;20037;-77
2022/11/27 08:17:05;;;;;;;93.30;38.00;;;;;;;;;;5034000;28;20041;-78
2022/11/27 08:19:49;;;;;;;94.85;38.88;;;;;;;;;;5053873;28;20045;-77
2022/11/27 08:22:34;;;;;;;113.00;50.53;;;;;;;;;;5059008;28;20048;-76
2022/11/27 08:25:20;;;;;;;95.15;40.97;;;;;;;;;;5059723;28;20049;-77
2022/11/27 08:28:05;;;;;;;102.05;43.33;;;;;;;;;;5056047;28;20048;-78
2022/11/27 08:30:57;;;;;;;85.15;39.13;;;;;;;;;;5061937;28;20392;-77
2022/11/27 08:33:42;;;;;;;92.47;40.55;;;;;;;;;;5044065;28;20053;-78
2022/11/27 08:36:28;;;;;;;102.45;41.13;;;;;;;;;;5056368;28;20045;-77
2022/11/27 08:39:14;;;;;;;98.30;42.10;;;;;;;;;;5043149;28;20045;-78
2022/11/27 08:41:59;;;;;;;101.38;44.28;;;;;;;;;;5049290;28;20045;-77
2022/11/27 08:44:45;;;;;;;98.95;43.80;;;;;;;;;;5059267;28;20040;-78
2022/11/27 08:47:31;;;;;;;93.32;41.35;;;;;;;;;;5052390;28;20041;-77
2022/11/27 08:50:16;;;;;;;89.75;43.08;;;;;;;;;;5057215;28;20049;-78
2022/11/27 08:53:02;;;;;;;91.60;42.63;;;;;;;;;;5059784;28;20045;-77
2022/11/27 08:55:47;;;;;;;95.00;43.63;;;;;;;;;;5052925;28;20045;-78
2022/11/27 08:58:33;;;;;;;98.25;42.75;;;;;;;;;;5059495;28;20048;-77
2022/11/27 09:01:24;;;;;;;137.38;63.70;;;;;;;;;;5058567;28;20053;-79
2022/11/27 09:04:10;;;;;;;90.10;42.30;;;;;;;;;;5052451;28;20056;-77
2022/11/27 09:06:56;;;;;;;79.75;38.80;;;;;;;;;;5051855;28;20041;-77
2022/11/27 09:09:41;;;;;;;89.05;40.80;;;;;;;;;;5056766;28;20388;-79
2022/11/27 09:12:28;;;;;;;78.72;39.33;;;;;;;;;;5054724;28;20049;-79
2022/11/27 09:15:13;;;;;;;100.00;49.58;;;;;;;;;;5053149;28;20061;-77
2022/11/27 09:17:59;;;;;;;83.40;38.55;;;;;;;;;;5063294;28;20049;-79
2022/11/27 09:20:44;;;;;;;88.00;40.63;;;;;;;;;;5063481;28;20048;-77
2022/11/27 09:23:30;;;;;;;110.72;46.30;;;;;;;;;;5063122;28;20053;-77
2022/11/27 09:26:16;;;;;;;99.82;45.00;;;;;;;;;;5052021;28;20407;-76
2022/11/27 09:29:02;;;;;;;93.57;43.30;;;;;;;;;;5053489;28;20400;-76
2022/11/27 09:31:49;;;;;;;100.60;46.38;;;;;;;;;;5055763;28;20041;-77
2022/11/27 09:34:34;;;;;;;82.75;38.75;;;;;;;;;;5060129;28;20045;-78
2022/11/27 09:37:20;;;;;;;78.53;40.55;;;;;;;;;;5059837;28;20041;-77
2022/11/27 09:40:06;;;;;;;93.55;41.17;;;;;;;;;;5059098;28;20053;-79
2022/11/27 09:43:01;;;;;;;84.53;39.17;;;;;;;;;;5058836;28;20088;-77
2022/11/27 09:45:54;;;;;;;72.88;38.38;;;;;;;;;;5050048;28;20053;-76
2022/11/27 09:48:41;;;;;;;73.43;37.03;;;;;;;;;;5054575;28;20049;-78
2022/11/27 09:51:51;;;;;;;83.97;38.85;;;;;;;;;;5048695;28;20048;-76
2022/11/27 09:54:42;;;;;;;76.07;38.88;;;;;;;;;;5053638;28;20037;-77
2022/11/27 09:57:35;;;;;;;69.22;34.88;;;;;;;;;;5051926;28;20045;-76
2022/11/27 10:00:21;;;;;;;66.43;34.33;;;;;;;;;;5041649;28;20033;-78
2022/11/27 10:03:12;;;;;;;70.03;34.78;;;;;;;;;;5049250;28;20460;-77
2022/11/27 10:06:24;;;;;;;59.10;31.48;;;;;;;;;;5059497;28;20053;-77
2022/11/27 10:09:42;;;;;;;58.75;30.67;;;;;;;;;;5053849;28;20053;-78
2022/11/27 10:13:02;;;;;;;65.90;33.90;;;;;;;;;;5043451;28;20041;-77
2022/11/27 10:15:57;;;;;;;92.63;46.25;;;;;;;;;;5058320;28;20048;-76
2022/11/27 10:18:51;;;;;;;119.75;63.42;;;;;;;;;;5062441;28;20037;-77
2022/11/27 10:22:10;;;;;;;60.78;32.35;;;;;;;;;;5055300;28;20053;-77
2022/11/27 10:25:16;;;;;;;99.80;52.72;;;;;;;;;;5058308;28;20049;-79
2022/11/27 10:28:15;;;;;;;80.30;41.85;;;;;;;;;;5058400;28;20714;-77
2022/11/27 10:31:09;;;;;;;67.18;33.00;;;;;;;;;;5062082;28;20049;-78
2022/11/27 10:33:58;;;;;;;47.70;25.65;;;;;;;;;;5060145;28;20044;-78
2022/11/27 10:36:48;;;;;;;49.08;25.65;;;;;;;;;;5061093;28;20044;-77
2022/11/27 10:39:42;;;;;;;55.53;28.38;;;;;;;;;;5061793;28;20045;-78
2022/11/27 10:42:35;;;;;;;52.70;27.20;;;;;;;;;;5061466;28;20403;-78
2022/11/27 10:45:28;;;;;;;91.55;41.50;;;;;;;;;;5062028;28;20049;-78
2022/11/27 10:48:14;;;;;;;65.93;34.30;;;;;;;;;;5062185;28;20060;-78
2022/11/27 10:50:59;;;;;;;103.43;48.85;;;;;;;;;;5061511;28;20472;-77
2022/11/27 10:53:49;;;;;;;97.78;44.53;;;;;;;;;;5054970;28;20041;-78
2022/11/27 10:56:56;;;;;;;51.35;21.83;;;;;;;;;;5061235;28;20387;-78
2022/11/27 10:59:58;;;;;;;61.60;31.02;;;;;;;;;;5061486;28;20053;-79
2022/11/27 11:02:45;;;;;;;67.68;30.40;;;;;;;;;;5056587;28;20049;-78
2022/11/27 11:05:33;;;;;;;63.25;32.67;;;;;;;;;;5061160;28;20053;-78
2022/11/27 11:08:19;;;;;;;67.97;35.05;;;;;;;;;;5054344;28;20040;-78
2022/11/27 11:11:07;;;;;;;75.88;38.53;;;;;;;;;;5062615;28;20425;-78
2022/11/27 11:13:54;;;;;;;83.15;40.65;;;;;;;;;;5063683;28;20045;-77
2022/11/27 11:16:42;;;;;;;88.18;42.60;;;;;;;;;;5064306;28;20399;-78
2022/11/27 11:19:34;;;;;;;66.00;33.08;;;;;;;;;;5061354;28;20392;-77
2022/11/27 11:22:20;;;;;;;66.80;34.75;;;;;;;;;;5061277;28;20404;-77
2022/11/27 11:25:18;;;;;;;75.85;36.65;;;;;;;;;;5060563;28;20398;-78
2022/11/27 11:28:03;;;;;;;59.70;30.02;;;;;;;;;;5054170;28;20044;-78
2022/11/27 11:30:56;;;;;;;64.80;31.63;;;;;;;;;;5060759;28;20045;-80
2022/11/27 11:34:01;;;;;;;63.03;30.88;;;;;;;;;;5061438;28;20057;-78
2022/11/27 11:37:19;;;;;;;66.55;32.55;;;;;;;;;;5061285;28;20396;-78
2022/11/27 11:40:07;;;;;;;61.50;31.17;;;;;;;;;;5051628;28;20467;-78
2022/11/27 11:42:57;;;;;;;60.22;29.13;;;;;;;;;;5061154;28;20045;-80
2022/11/27 11:45:45;;;;;;;54.15;30.25;;;;;;;;;;5053856;28;20048;-78
2022/11/27 11:48:31;;;;;;;65.78;34.65;;;;;;;;;;5061089;28;20048;-77
2022/11/27 11:51:26;;;;;;;76.88;36.08;;;;;;;;;;5060558;28;20045;-79
2022/11/27 11:54:17;;;;;;;71.07;34.17;;;;;;;;;;5060307;28;20045;-79
2022/11/27 11:57:10;;;;;;;77.40;37.53;;;;;;;;;;5060350;28;20041;-79
2022/11/27 12:00:03;;;;;;;83.15;38.47;;;;;;;;;;5060742;28;20045;-77
2022/11/27 12:03:02;;;;;;;82.78;38.58;;;;;;;;;;5053685;28;20053;-78
2022/11/27 12:06:00;;;;;;;92.63;46.25;;;;;;;;;;5060496;28;20052;-78
2022/11/27 12:09:07;;;;;;;85.03;43.25;;;;;;;;;;5053161;28;20055;-78
2022/11/27 12:12:34;;;;;;;95.90;45.33;;;;;;;;;;5060827;28;20045;-79
2022/11/27 12:15:25;;;;;;;86.22;43.55;;;;;;;;;;5059231;28;20053;-78
2022/11/27 12:18:14;;;;;;;103.20;55.45;;;;;;;;;;5059983;28;20045;-77
2022/11/27 12:21:36;;;;;;;71.32;38.92;;;;;;;;;;5060682;28;20041;-79
2022/11/27 12:24:44;;;;;;;82.50;38.90;;;;;;;;;;5048161;28;20044;-78
2022/11/27 12:28:05;;;;;;;77.35;38.05;;;;;;;;;;5060146;28;20049;-80
2022/11/27 12:31:14;;;;;;;80.05;42.28;;;;;;;;;;5036492;28;20049;-78
2022/11/27 12:33:59;;;;;;;91.28;44.42;;;;;;;;;;5059174;28;20463;-78
2022/11/27 12:36:53;;;;;;;90.43;43.70;;;;;;;;;;5056965;28;20037;-79
2022/11/27 12:40:13;;;;;;;89.75;42.90;;;;;;;;;;5058402;28;20036;-79
2022/11/27 12:43:08;;;;;;;87.05;43.10;;;;;;;;;;5052319;28;20049;-79
2022/11/27 12:46:10;;;;;;;92.13;44.08;;;;;;;;;;5059902;28;20056;-78
2022/11/27 12:49:04;;;;;;;95.93;44.83;;;;;;;;;;5062724;28;20041;-77
2022/11/27 12:52:08;;;;;;;92.85;45.38;;;;;;;;;;5063848;28;20045;-79
2022/11/27 12:55:14;;;;;;;88.30;44.25;;;;;;;;;;5057487;28;20044;-80
2022/11/27 12:58:08;;;;;;;94.85;43.33;;;;;;;;;;5057435;28;20044;-80
2022/11/27 13:01:06;;;;;;;101.05;45.95;;;;;;;;;;5057574;28;20037;-79
2022/11/27 13:04:21;;;;;;;89.10;42.58;;;;;;;;;;5064280;28;20057;-79
2022/11/27 13:07:12;;;;;;;82.85;41.00;;;;;;;;;;5063691;28;20037;-76
2022/11/27 13:10:22;;;;;;;87.15;41.42;;;;;;;;;;5062029;28;20048;-78
2022/11/27 13:13:16;;;;;;;91.75;43.67;;;;;;;;;;5048207;28;20037;-77
2022/11/27 13:16:20;;;;;;;94.97;44.47;;;;;;;;;;5063796;28;20053;-80
2022/11/27 13:19:14;;;;;;;98.05;45.35;;;;;;;;;;5063291;28;20472;-77
2022/11/27 13:22:02;;;;;;;;;;;;;;;;;;5063816;28;20132;-77
2022/11/27 13:24:48;;;;;;;68.53;35.75;;;;;;;;;;5063433;28;19913;-78
2022/11/27 13:27:36;;;;;;;72.70;37.03;;;;;;;;;;5062206;28;20068;-78
2022/11/27 13:30:25;;;;;;;75.78;36.92;;;;;;;;;;5060863;28;20044;-78
2022/11/27 13:33:26;;;;;;;61.45;33.25;;;;;;;;;;5061631;28;20400;-77
2022/11/27 13:36:27;;;;;;;74.68;35.33;;;;;;;;;;5062536;28;20048;-79
2022/11/27 13:39:27;;;;;;;67.35;34.75;;;;;;;;;;5062702;28;20041;-77
2022/11/27 13:42:21;;;;;;;64.47;34.95;;;;;;;;;;5062826;28;20042;-78
2022/11/27 13:45:11;;;;;;;74.43;40.00;;;;;;;;;;5063135;28;20403;-78
2022/11/27 13:47:58;;;;;;;84.82;42.35;;;;;;;;;;5062638;28;20495;-76
2022/11/27 13:50:44;;;;;;;96.00;44.28;;;;;;;;;;5057271;28;20045;-78
2022/11/27 13:53:33;;;;;;;90.20;42.65;;;;;;;;;;5065394;28;20045;-78
2022/11/27 13:56:30;;;;;;;102.32;47.35;;;;;;;;;;5063914;28;20041;-77
2022/11/27 13:59:21;;;;;;;81.80;40.83;;;;;;;;;;5065375;28;20048;-78
2022/11/27 14:02:07;;;;;;;96.03;46.28;;;;;;;;;;5062559;28;20049;-78
2022/11/27 14:04:53;;;;;;;83.15;43.05;;;;;;;;;;5066442;28;20056;-78
2022/11/27 14:07:42;;;;;;;97.30;45.00;;;;;;;;;;5058662;28;20045;-77
2022/11/27 14:10:31;;;;;;;97.55;46.78;;;;;;;;;;5065285;28;20049;-77
2022/11/27 14:13:16;;;;;;;74.97;36.05;;;;;;;;;;5064915;28;20049;-76
2022/11/27 14:16:03;;;;;;;92.80;41.67;;;;;;;;;;5062007;28;20041;-77
2022/11/27 14:18:54;;;;;;;81.80;38.80;;;;;;;;;;5056022;28;20052;-76
2022/11/27 14:21:41;;;;;;;83.65;40.47;;;;;;;;;;5062458;28;20045;-78
2022/11/27 14:24:45;;;;;;;67.65;33.25;;;;;;;;;;5062064;28;20403;-77
2022/11/27 14:27:34;;;;;;;64.18;30.33;;;;;;;;;;5055860;28;20041;-78
2022/11/27 14:30:34;;;;;;;69.97;35.10;;;;;;;;;;5054577;28;20045;-77
2022/11/27 14:33:27;;;;;;;80.97;39.20;;;;;;;;;;5055182;28;20037;-76
2022/11/27 14:36:24;;;;;;;81.85;39.92;;;;;;;;;;5061923;28;20419;-78
2022/11/27 14:39:21;;;;;;;79.05;38.30;;;;;;;;;;5062422;28;20049;-79
2022/11/27 14:42:18;;;;;;;67.63;34.65;;;;;;;;;;5062069;28;20049;-80
2022/11/27 14:45:11;;;;;;;73.43;36.58;;;;;;;;;;5061777;28;20049;-77
2022/11/27 14:47:56;;;;;;;78.68;38.97;;;;;;;;;;5056650;28;20418;-77
2022/11/27 14:50:42;;;;;;;94.75;43.58;;;;;;;;;;5061568;28;20037;-78
2022/11/27 14:53:28;;;;;;;88.68;43.30;;;;;;;;;;5059105;28;20044;-79
2022/11/27 14:56:14;;;;;;;86.65;42.35;;;;;;;;;;5056606;28;20049;-78
2022/11/27 14:59:01;;;;;;;92.47;46.30;;;;;;;;;;5056050;28;20046;-77
2022/11/27 15:02:16;;;;;;;92.35;46.83;;;;;;;;;;5055337;28;20045;-77
2022/11/27 15:05:04;;;;;;;129.07;66.50;;;;;;;;;;5060997;28;20409;-77
2022/11/27 15:07:52;;;;;;;129.85;66.53;;;;;;;;;;5054885;28;20041;-77
2022/11/27 15:10:40;;;;;;;131.05;69.32;;;;;;;;;;5061180;28;20391;-77
2022/11/27 15:13:28;;;;;;;129.55;68.38;;;;;;;;;;5061125;28;20472;-77
2022/11/27 15:16:18;;;;;;;150.88;76.03;;;;;;;;;;5051879;28;20049;-78
2022/11/27 15:19:04;;;;;;;146.82;72.10;;;;;;;;;;5057933;28;20057;-79
2022/11/27 15:21:49;;;;;;;110.72;52.80;;;;;;;;;;5059990;28;20045;-77
2022/11/27 15:24:38;;;;;;;100.18;45.97;;;;;;;;;;5050050;28;20053;-82
2022/11/27 15:27:23;;;;;;;89.68;43.33;;;;;;;;;;5059418;28;20048;-78
2022/11/27 15:30:15;;;;;;;96.30;44.95;;;;;;;;;;5060765;28;20421;-80
2022/11/27 15:33:01;;;;;;;108.07;48.45;;;;;;;;;;5060925;28;20037;-81
2022/11/27 15:35:46;;;;;;;135.77;66.82;;;;;;;;;;5045014;28;20041;-79
2022/11/27 15:38:32;;;;;;;192.48;102.38;;;;;;;;;;5041182;28;20045;-80
2022/11/27 15:41:29;;;;;;;169.15;83.90;;;;;;;;;;5041361;28;20472;-83
2022/11/27 15:44:15;;;;;;;123.43;51.75;;;;;;;;;;5040634;28;20045;-80
2022/11/27 15:47:04;;;;;;;109.78;44.60;;;;;;;;;;5043708;28;20045;-82
2022/11/27 15:49:49;;;;;;;112.38;51.97;;;;;;;;;;5051089;28;20045;-79
2022/11/27 15:52:35;;;;;;;118.68;56.05;;;;;;;;;;5051451;28;20033;-80
2022/11/27 15:55:20;;;;;;;123.97;59.00;;;;;;;;;;5057132;28;20045;-81
2022/11/27 15:58:06;;;;;;;136.45;70.05;;;;;;;;;;5057456;28;20480;-81
2022/11/27 16:00:51;;;;;;;97.20;45.78;;;;;;;;;;5050334;28;20053;-80
2022/11/27 16:03:38;;;;;;;100.00;47.25;;;;;;;;;;5049931;28;20037;-82
2022/11/27 16:06:24;;;;;;;152.63;82.88;;;;;;;;;;5053925;28;20052;-82
2022/11/27 16:09:09;;;;;;;118.50;59.25;;;;;;;;;;5051714;28;20033;-82
2022/11/27 16:11:55;;;;;;;89.22;43.53;;;;;;;;;;5060621;28;20057;-81
2022/11/27 16:14:40;;;;;;;111.07;54.58;;;;;;;;;;5056436;28;20473;-80
2022/11/27 16:17:25;;;;;;;147.68;76.05;;;;;;;;;;5049238;28;20500;-78
2022/11/27 16:20:11;;;;;;;128.77;62.95;;;;;;;;;;5058060;28;20049;-80
2022/11/27 16:22:57;;;;;;;162.13;85.72;;;;;;;;;;5039707;28;20049;-82
2022/11/27 16:25:43;;;;;;;115.35;54.05;;;;;;;;;;5040707;28;20049;-78